sensor_id;sensor_type;location;lat;lon;timestamp;pressure;altitude;pressure_sealevel;temperature;humidity
50087;BME280;35967;50.718;7.050;2023-06-10T00:02:03;100508.91;;;21.93;52.63
50087;BME280;35967;50.718;7.050;2023-06-10T00:12:08;100515.03;;;21.67;54.53
50087;BME280;35967;50.718;7.050;2023-06-10T00:22:12;100505.25;;;21.58;54.67
50087;BME280;35967;50.718;7.050;2023-06-10T00:32:16;100517.91;;;21.64;54.64
50087;BME280;35967;50.718;7.050;2023-06-10T00:42:20;100523.34;;;21.61;55.01
50087;BME280;35967;50.718;7.050;2023-06-10T01:02:30;100526.63;;;21.39;56.63
50087;BME280;35967;50.718;7.050;2023-06-10T01:12:33;100528.75;;;20.95;58.06
50087;BME280;35967;50.718;7.050;2023-06-10T01:22:40;100523.81;;;20.77;59.22
50087;BME280;35967;50.718;7.050;2023-06-10T01:32:44;100520.84;;;20.69;59.08
50087;BME280;35967;50.718;7.050;2023-06-10T01:42:50;100522.72;;;20.54;60.14
50087;BME280;35967;50.718;7.050;2023-06-10T01:52:54;100525.69;;;20.35;60.64
50087;BME280;35967;50.718;7.050;2023-06-10T02:02:59;100529.66;;;20.28;60.07
50087;BME280;35967;50.718;7.050;2023-06-10T02:13:03;100546.72;;;20.06;62.20
50087;BME280;35967;50.718;7.050;2023-06-10T02:23:08;100546.66;;;19.93;62.50
50087;BME280;35967;50.718;7.050;2023-06-10T02:33:11;100533.50;;;19.80;62.73
50087;BME280;35967;50.718;7.050;2023-06-10T02:43:17;100542.09;;;19.68;63.09
50087;BME280;35967;50.718;7.050;2023-06-10T02:53:22;100547.72;;;19.47;63.76
50087;BME280;35967;50.718;7.050;2023-06-10T03:03:31;100550.34;;;19.33;64.16
50087;BME280;35967;50.718;7.050;2023-06-10T03:13:41;100548.28;;;19.09;65.13
50087;BME280;35967;50.718;7.050;2023-06-10T03:23:49;100561.78;;;19.01;66.08
50087;BME280;35967;50.718;7.050;2023-06-10T03:33:52;100567.25;;;18.97;65.74
50087;BME280;35967;50.718;7.050;2023-06-10T03:43:57;100575.44;;;18.90;66.40
50087;BME280;35967;50.718;7.050;2023-06-10T03:54:00;100572.69;;;19.08;66.81
50087;BME280;35967;50.718;7.050;2023-06-10T04:04:04;100572.31;;;19.14;66.34
50087;BME280;35967;50.718;7.050;2023-06-10T04:14:09;100582.38;;;19.06;67.39
50087;BME280;35967;50.718;7.050;2023-06-10T04:24:16;100586.50;;;19.10;68.20
50087;BME280;35967;50.718;7.050;2023-06-10T04:34:20;100587.81;;;19.17;67.47
50087;BME280;35967;50.718;7.050;2023-06-10T04:44:24;100587.63;;;19.35;68.37
50087;BME280;35967;50.718;7.050;2023-06-10T04:54:27;100589.75;;;19.71;68.56
50087;BME280;35967;50.718;7.050;2023-06-10T05:04:32;100603.56;;;19.74;68.79
50087;BME280;35967;50.718;7.050;2023-06-10T05:14:35;100593.59;;;19.95;67.55
50087;BME280;35967;50.718;7.050;2023-06-10T05:24:39;100587.34;;;20.52;66.41
50087;BME280;35967;50.718;7.050;2023-06-10T05:34:43;100591.44;;;20.84;63.95
50087;BME280;35967;50.718;7.050;2023-06-10T05:44:47;100598.78;;;21.30;63.42
50087;BME280;35967;50.718;7.050;2023-06-10T05:54:50;100603.50;;;21.64;62.78
50087;BME280;35967;50.718;7.050;2023-06-10T06:04:55;100606.44;;;22.33;63.12
50087;BME280;35967;50.718;7.050;2023-06-10T06:14:58;100609.09;;;22.58;63.17
50087;BME280;35967;50.718;7.050;2023-06-10T06:25:02;100600.28;;;22.94;61.42
50087;BME280;35967;50.718;7.050;2023-06-10T06:35:06;100599.72;;;23.25;57.35
50087;BME280;35967;50.718;7.050;2023-06-10T06:45:11;100604.50;;;23.65;52.24
50087;BME280;35967;50.718;7.050;2023-06-10T06:55:14;100614.22;;;23.99;47.18
50087;BME280;35967;50.718;7.050;2023-06-10T07:05:18;100601.31;;;24.28;47.03
50087;BME280;35967;50.718;7.050;2023-06-10T07:15:22;100610.94;;;24.83;46.13
50087;BME280;35967;50.718;7.050;2023-06-10T07:25:26;100605.19;;;25.20;45.12
50087;BME280;35967;50.718;7.050;2023-06-10T07:35:30;100606.81;;;25.63;43.57
50087;BME280;35967;50.718;7.050;2023-06-10T07:45:34;100598.78;;;25.85;43.45
50087;BME280;35967;50.718;7.050;2023-06-10T07:55:38;100598.63;;;26.37;43.05
50087;BME280;35967;50.718;7.050;2023-06-10T08:05:42;100600.44;;;26.56;41.43
50087;BME280;35967;50.718;7.050;2023-06-10T08:15:45;100604.31;;;26.81;40.48
50087;BME280;35967;50.718;7.050;2023-06-10T08:25:50;100606.72;;;27.32;39.14
50087;BME280;35967;50.718;7.050;2023-06-10T08:35:54;100591.94;;;27.29;39.86
50087;BME280;35967;50.718;7.050;2023-06-10T08:45:59;100600.38;;;27.52;39.56
50087;BME280;35967;50.718;7.050;2023-06-10T08:56:02;100611.44;;;27.66;38.45
50087;BME280;35967;50.718;7.050;2023-06-10T09:06:08;100608.75;;;27.76;37.94
50087;BME280;35967;50.718;7.050;2023-06-10T09:16:11;100607.22;;;28.01;37.84
50087;BME280;35967;50.718;7.050;2023-06-10T09:26:17;100594.75;;;28.47;37.12
50087;BME280;35967;50.718;7.050;2023-06-10T09:36:23;100590.03;;;28.77;35.57
50087;BME280;35967;50.718;7.050;2023-06-10T09:46:30;100581.38;;;29.28;36.48
50087;BME280;35967;50.718;7.050;2023-06-10T09:56:33;100565.81;;;29.59;34.55
50087;BME280;35967;50.718;7.050;2023-06-10T10:06:38;100575.91;;;30.15;32.79
50087;BME280;35967;50.718;7.050;2023-06-10T10:16:42;100571.72;;;30.37;32.72
50087;BME280;35967;50.718;7.050;2023-06-10T10:26:47;100564.75;;;30.78;31.56
50087;BME280;35967;50.718;7.050;2023-06-10T10:36:51;100555.06;;;30.93;31.83
50087;BME280;35967;50.718;7.050;2023-06-10T10:46:55;100548.31;;;31.39;30.34
50087;BME280;35967;50.718;7.050;2023-06-10T10:57:11;100548.50;;;32.38;28.92
50087;BME280;35967;50.718;7.050;2023-06-10T11:07:16;100538.03;;;32.52;28.84
50087;BME280;35967;50.718;7.050;2023-06-10T11:17:24;100536.56;;;31.25;29.96
50087;BME280;35967;50.718;7.050;2023-06-10T11:27:29;100542.38;;;30.14;31.26
50087;BME280;35967;50.718;7.050;2023-06-10T11:37:39;100532.75;;;30.55;31.54
50087;BME280;35967;50.718;7.050;2023-06-10T11:47:56;100536.47;;;29.69;31.74
50087;BME280;35967;50.718;7.050;2023-06-10T11:58:00;100507.34;;;33.16;26.61
50087;BME280;35967;50.718;7.050;2023-06-10T12:08:10;100482.91;;;39.08;16.77
50087;BME280;35967;50.718;7.050;2023-06-10T12:18:17;100497.47;;;34.75;19.69
50087;BME280;35967;50.718;7.050;2023-06-10T12:28:22;100483.44;;;42.04;14.24
50087;BME280;35967;50.718;7.050;2023-06-10T12:38:25;100482.31;;;40.62;14.53
50087;BME280;35967;50.718;7.050;2023-06-10T12:48:30;100480.47;;;37.18;17.09
50087;BME280;35967;50.718;7.050;2023-06-10T12:58:33;100478.88;;;36.51;18.12
50087;BME280;35967;50.718;7.050;2023-06-10T13:08:37;100486.78;;;32.12;22.81
50087;BME280;35967;50.718;7.050;2023-06-10T13:18:40;100478.56;;;31.20;25.09
50087;BME280;35967;50.718;7.050;2023-06-10T13:28:45;100473.78;;;31.15;24.67
50087;BME280;35967;50.718;7.050;2023-06-10T13:38:48;100465.84;;;30.51;24.91
50087;BME280;35967;50.718;7.050;2023-06-10T13:48:52;100452.59;;;30.26;25.49
50087;BME280;35967;50.718;7.050;2023-06-10T13:58:55;100459.34;;;30.45;26.26
50087;BME280;35967;50.718;7.050;2023-06-10T14:08:59;100466.19;;;30.15;24.72
50087;BME280;35967;50.718;7.050;2023-06-10T14:19:02;100443.97;;;30.24;25.61
50087;BME280;35967;50.718;7.050;2023-06-10T14:29:07;100435.81;;;30.26;24.83
50087;BME280;35967;50.718;7.050;2023-06-10T14:39:10;100433.03;;;30.19;25.16
50087;BME280;35967;50.718;7.050;2023-06-10T14:49:14;100423.72;;;30.23;24.57
50087;BME280;35967;50.718;7.050;2023-06-10T14:59:18;100416.22;;;30.27;25.88
50087;BME280;35967;50.718;7.050;2023-06-10T15:09:23;100420.56;;;29.86;24.79
50087;BME280;35967;50.718;7.050;2023-06-10T15:19:26;100402.66;;;29.88;23.92
50087;BME280;35967;50.718;7.050;2023-06-10T15:29:31;100401.03;;;29.96;24.88
50087;BME280;35967;50.718;7.050;2023-06-10T15:39:34;100397.69;;;30.02;24.47
50087;BME280;35967;50.718;7.050;2023-06-10T15:49:38;100389.09;;;29.92;24.68
50087;BME280;35967;50.718;7.050;2023-06-10T15:59:41;100384.09;;;29.64;25.37
50087;BME280;35967;50.718;7.050;2023-06-10T16:09:45;100385.94;;;29.63;24.92
50087;BME280;35967;50.718;7.050;2023-06-10T16:19:48;100363.88;;;29.54;25.44
50087;BME280;35967;50.718;7.050;2023-06-10T16:29:52;100380.63;;;29.55;25.82
50087;BME280;35967;50.718;7.050;2023-06-10T16:39:55;100373.84;;;29.52;25.61
50087;BME280;35967;50.718;7.050;2023-06-10T16:50:00;100377.97;;;29.38;25.82
50087;BME280;35967;50.718;7.050;2023-06-10T17:00:03;100381.09;;;29.34;26.21
50087;BME280;35967;50.718;7.050;2023-06-10T17:10:09;100392.16;;;29.29;25.54
50087;BME280;35967;50.718;7.050;2023-06-10T17:20:12;100389.00;;;29.17;25.53
50087;BME280;35967;50.718;7.050;2023-06-10T17:30:17;100391.13;;;29.05;26.06
50087;BME280;35967;50.718;7.050;2023-06-10T17:40:20;100395.91;;;29.02;26.56
50087;BME280;35967;50.718;7.050;2023-06-10T17:50:24;100403.69;;;28.95;25.74
50087;BME280;35967;50.718;7.050;2023-06-10T18:00:27;100406.97;;;28.89;26.07
50087;BME280;35967;50.718;7.050;2023-06-10T18:10:31;100413.41;;;28.78;26.85
50087;BME280;35967;50.718;7.050;2023-06-10T18:20:34;100418.78;;;28.68;27.04
50087;BME280;35967;50.718;7.050;2023-06-10T18:30:38;100424.53;;;28.55;27.55
50087;BME280;35967;50.718;7.050;2023-06-10T18:40:41;100429.84;;;28.37;28.05
50087;BME280;35967;50.718;7.050;2023-06-10T18:50:46;100432.25;;;28.22;28.74
50087;BME280;35967;50.718;7.050;2023-06-10T19:00:49;100449.69;;;28.07;29.27
50087;BME280;35967;50.718;7.050;2023-06-10T19:10:53;100454.28;;;27.86;29.15
50087;BME280;35967;50.718;7.050;2023-06-10T19:20:56;100468.72;;;27.74;29.73
50087;BME280;35967;50.718;7.050;2023-06-10T19:31:00;100491.91;;;27.62;30.22
50087;BME280;35967;50.718;7.050;2023-06-10T19:41:04;100508.16;;;27.39;30.67
50087;BME280;35967;50.718;7.050;2023-06-10T19:51:08;100510.41;;;27.06;32.54
50087;BME280;35967;50.718;7.050;2023-06-10T20:01:11;100514.53;;;26.81;33.21
50087;BME280;35967;50.718;7.050;2023-06-10T20:11:16;100526.06;;;26.60;34.57
50087;BME280;35967;50.718;7.050;2023-06-10T20:21:19;100535.81;;;26.40;35.64
50087;BME280;35967;50.718;7.050;2023-06-10T20:31:24;100544.47;;;26.33;36.29
50087;BME280;35967;50.718;7.050;2023-06-10T20:41:28;100554.44;;;26.09;36.85
50087;BME280;35967;50.718;7.050;2023-06-10T20:51:32;100566.06;;;25.97;38.37
50087;BME280;35967;50.718;7.050;2023-06-10T21:01:35;100572.16;;;25.78;39.20
50087;BME280;35967;50.718;7.050;2023-06-10T21:11:39;100581.69;;;25.69;39.79
50087;BME280;35967;50.718;7.050;2023-06-10T21:21:44;100589.41;;;25.51;41.23
50087;BME280;35967;50.718;7.050;2023-06-10T21:31:49;100594.88;;;25.38;41.77
50087;BME280;35967;50.718;7.050;2023-06-10T21:41:52;100592.22;;;25.38;41.93
50087;BME280;35967;50.718;7.050;2023-06-10T21:51:56;100590.91;;;25.23;43.71
50087;BME280;35967;50.718;7.050;2023-06-10T22:01:59;100591.03;;;25.11;44.02
50087;BME280;35967;50.718;7.050;2023-06-10T22:12:04;100596.69;;;25.07;44.61
50087;BME280;35967;50.718;7.050;2023-06-10T22:22:07;100596.16;;;24.92;45.96
50087;BME280;35967;50.718;7.050;2023-06-10T22:32:12;100601.69;;;24.67;46.71
50087;BME280;35967;50.718;7.050;2023-06-10T22:42:15;100604.75;;;24.40;48.11
50087;BME280;35967;50.718;7.050;2023-06-10T22:52:19;100611.53;;;24.21;48.75
50087;BME280;35967;50.718;7.050;2023-06-10T23:02:22;100615.50;;;23.93;49.92
50087;BME280;35967;50.718;7.050;2023-06-10T23:12:26;100614.44;;;23.73;50.73
50087;BME280;35967;50.718;7.050;2023-06-10T23:26:37;100625.91;;;23.49;52.18
50087;BME280;35967;50.718;7.050;2023-06-10T23:36:40;100635.19;;;23.30;52.14
50087;BME280;35967;50.718;7.050;2023-06-10T23:46:45;100637.28;;;23.14;53.15
50087;BME280;35967;50.718;7.050;2023-06-10T23:56:48;100642.47;;;22.91;54.33
